createdAt,value
2022-11-12T00:01:34.824Z,7.74
2022-11-12T00:04:21.266Z,7.71
2022-11-12T00:07:07.625Z,7.67
2022-11-12T00:09:54.245Z,7.63
2022-11-12T00:12:40.729Z,7.62
2022-11-12T00:15:27.636Z,7.60
2022-11-12T00:18:14.120Z,7.60
2022-11-12T00:21:00.538Z,7.59
2022-11-12T00:23:46.937Z,7.58
2022-11-12T00:26:33.569Z,7.58
2022-11-12T00:29:19.681Z,7.58
2022-11-12T00:32:06.902Z,7.56
2022-11-12T00:34:53.450Z,7.54
2022-11-12T00:37:39.787Z,7.51
2022-11-12T00:40:26.847Z,7.51
2022-11-12T00:43:13.330Z,7.49
2022-11-12T00:45:59.720Z,7.47
2022-11-12T00:48:46.191Z,7.45
2022-11-12T00:51:34.937Z,7.42
2022-11-12T00:54:21.116Z,7.40
2022-11-12T00:57:07.610Z,7.36
2022-11-12T00:59:54.073Z,7.32
2022-11-12T01:02:45.245Z,7.29
2022-11-12T01:05:34.813Z,7.27
2022-11-12T01:08:21.212Z,7.26
2022-11-12T01:11:13.164Z,7.24
2022-11-12T01:14:01.688Z,7.22
2022-11-12T01:16:48.131Z,7.22
2022-11-12T01:19:34.468Z,7.21
2022-11-12T01:22:20.710Z,7.20
2022-11-12T01:25:10.502Z,7.18
2022-11-12T01:27:56.943Z,7.16
2022-11-12T01:30:43.377Z,7.15
2022-11-12T01:33:29.634Z,7.13
2022-11-12T01:36:17.983Z,7.10
2022-11-12T01:39:06.402Z,7.08
2022-11-12T01:41:52.591Z,7.06
2022-11-12T01:44:40.160Z,7.04
2022-11-12T01:47:31.268Z,7.04
2022-11-12T01:50:20.888Z,7.00
2022-11-12T01:53:10.224Z,6.96
2022-11-12T01:55:57.408Z,6.93
2022-11-12T01:58:45.306Z,6.90
2022-11-12T02:01:31.944Z,6.87
2022-11-12T02:04:18.911Z,6.84
2022-11-12T02:07:06.882Z,6.81
2022-11-12T02:09:53.460Z,6.77
2022-11-12T02:12:58.289Z,6.74
2022-11-12T02:15:45.005Z,6.67
2022-11-12T02:18:31.293Z,6.65
2022-11-12T02:21:22.057Z,6.63
2022-11-12T02:24:11.409Z,6.60
2022-11-12T02:26:57.877Z,6.58
2022-11-12T02:29:47.374Z,6.54
2022-11-12T02:32:33.680Z,6.51
2022-11-12T02:35:19.925Z,6.51
2022-11-12T02:38:07.622Z,6.50
2022-11-12T02:40:54.113Z,6.49
2022-11-12T02:43:40.966Z,6.47
2022-11-12T02:46:27.499Z,6.46
2022-11-12T02:49:13.940Z,6.46
2022-11-12T02:52:00.228Z,6.49
2022-11-12T02:54:46.883Z,6.53
2022-11-12T02:57:33.340Z,6.59
2022-11-12T03:00:19.899Z,6.65
2022-11-12T03:03:06.368Z,6.71
2022-11-12T03:05:57.286Z,6.77
2022-11-12T03:08:43.473Z,6.82
2022-11-12T03:11:29.878Z,6.86
2022-11-12T03:14:16.503Z,6.90
2022-11-12T03:17:02.978Z,6.94
2022-11-12T03:19:49.199Z,6.98
2022-11-12T03:22:35.532Z,7.03
2022-11-12T03:25:21.956Z,7.07
2022-11-12T03:28:10.643Z,7.12
2022-11-12T03:30:59.260Z,7.15
2022-11-12T03:33:45.821Z,7.18
2022-11-12T03:36:31.997Z,7.20
2022-11-12T03:39:18.321Z,7.21
2022-11-12T03:42:04.990Z,7.22
2022-11-12T03:44:51.226Z,7.22
2022-11-12T03:47:44.189Z,7.23
2022-11-12T03:50:30.809Z,7.23
2022-11-12T03:53:17.244Z,7.25
2022-11-12T03:56:03.959Z,7.26
2022-11-12T03:58:50.084Z,7.27
2022-11-12T04:01:36.353Z,7.29
2022-11-12T04:04:22.708Z,7.29
2022-11-12T04:07:27.699Z,7.30
2022-11-12T04:10:14.305Z,7.29
2022-11-12T04:13:19.257Z,7.28
2022-11-12T04:16:26.341Z,7.28
2022-11-12T04:19:32.677Z,7.27
2022-11-12T04:22:19.115Z,7.27
2022-11-12T04:25:24.503Z,7.28
2022-11-12T04:28:11.214Z,7.29
2022-11-12T04:30:57.619Z,7.30
2022-11-12T04:33:43.969Z,7.32
2022-11-12T04:36:30.470Z,7.34
2022-11-12T04:39:16.964Z,7.35
2022-11-12T04:42:22.541Z,7.37
2022-11-12T04:45:10.309Z,7.37
2022-11-12T04:47:56.840Z,7.38
2022-11-12T04:50:45.217Z,7.40
2022-11-12T04:53:31.616Z,7.41
2022-11-12T04:56:17.824Z,7.43
2022-11-12T04:59:04.079Z,7.45
2022-11-12T05:01:50.688Z,7.46
2022-11-12T05:04:36.839Z,7.45
2022-11-12T05:07:23.287Z,7.46
2022-11-12T05:10:09.940Z,7.47
2022-11-12T05:12:56.371Z,7.46
2022-11-12T05:15:44.088Z,7.46
2022-11-12T05:18:30.405Z,7.46
2022-11-12T05:21:40.583Z,7.45
2022-11-12T05:24:41.537Z,7.43
2022-11-12T05:27:28.581Z,7.42
2022-11-12T05:30:14.865Z,7.42
2022-11-12T05:33:01.461Z,7.42
2022-11-12T05:35:47.844Z,7.43
2022-11-12T05:38:34.270Z,7.44
2022-11-12T05:41:20.707Z,7.45
2022-11-12T05:44:07.510Z,7.46
2022-11-12T05:46:53.739Z,7.47
2022-11-12T05:49:40.183Z,7.48
2022-11-12T05:52:26.595Z,7.48
2022-11-12T05:55:13.349Z,7.50
2022-11-12T05:58:04.812Z,7.50
2022-11-12T06:00:51.172Z,7.52
2022-11-12T06:03:37.583Z,7.54
2022-11-12T06:06:24.517Z,7.55
2022-11-12T06:09:11.307Z,7.56
2022-11-12T06:11:57.855Z,7.59
2022-11-12T06:14:44.312Z,7.62
2022-11-12T06:17:30.955Z,7.63
2022-11-12T06:20:17.466Z,7.66
2022-11-12T06:23:04.473Z,7.70
2022-11-12T06:25:50.708Z,7.71
2022-11-12T06:28:37.298Z,7.74
2022-11-12T06:31:23.913Z,7.75
2022-11-12T06:34:12.505Z,7.77
2022-11-12T06:36:59.036Z,7.78
2022-11-12T06:39:45.430Z,7.77
2022-11-12T06:42:31.836Z,7.75
2022-11-12T06:45:18.390Z,7.75
2022-11-12T06:48:04.851Z,7.75
2022-11-12T06:50:51.255Z,7.76
2022-11-12T06:53:37.667Z,7.78
2022-11-12T06:56:24.275Z,7.79
2022-11-12T06:59:10.797Z,7.78
2022-11-12T07:01:57.249Z,7.75
2022-11-12T07:04:43.779Z,7.75
2022-11-12T07:07:30.226Z,7.75
2022-11-12T07:10:16.674Z,7.75
2022-11-12T07:13:04.001Z,7.77
2022-11-12T07:15:50.515Z,7.77
2022-11-12T07:18:37.017Z,7.76
2022-11-12T07:21:23.599Z,7.77
2022-11-12T07:24:10.001Z,7.78
2022-11-12T07:26:56.286Z,7.80
2022-11-12T07:29:48.141Z,7.81
2022-11-12T07:32:38.667Z,7.80
2022-11-12T07:35:28.406Z,7.80
2022-11-12T07:38:14.518Z,7.81
2022-11-12T07:41:15.243Z,7.83
2022-11-12T07:44:01.760Z,7.84
2022-11-12T07:46:48.160Z,7.85
2022-11-12T07:49:34.655Z,7.89
2022-11-12T07:52:21.614Z,7.92
2022-11-12T07:55:08.572Z,7.94
2022-11-12T07:57:59.107Z,7.96
2022-11-12T08:00:45.330Z,7.99
2022-11-12T08:03:31.819Z,7.99
2022-11-12T08:06:18.263Z,8.00
2022-11-12T08:09:07.220Z,8.01
2022-11-12T08:11:54.331Z,8.03
2022-11-12T08:14:40.454Z,8.07
2022-11-12T08:17:26.864Z,8.10
2022-11-12T08:20:14.194Z,8.12
2022-11-12T08:23:00.721Z,8.16
2022-11-12T08:25:46.915Z,8.19
2022-11-12T08:28:34.887Z,8.21
2022-11-12T08:31:22.761Z,8.22
2022-11-12T08:34:19.952Z,8.24
2022-11-12T08:37:08.944Z,8.23
2022-11-12T08:39:55.120Z,8.24
2022-11-12T08:42:41.249Z,8.25
2022-11-12T08:45:28.300Z,8.28
2022-11-12T08:48:14.482Z,8.31
2022-11-12T08:51:04.478Z,8.33
2022-11-12T08:53:50.780Z,8.35
2022-11-12T08:56:38.530Z,8.38
2022-11-12T08:59:25.580Z,8.41
2022-11-12T09:02:13.094Z,8.41
2022-11-12T09:04:59.575Z,8.41
2022-11-12T09:07:50.662Z,8.43
2022-11-12T09:10:37.922Z,8.44
2022-11-12T09:13:24.157Z,8.44
2022-11-12T09:16:10.659Z,8.46
2022-11-12T09:18:57.061Z,8.46
2022-11-12T09:21:43.550Z,8.49
2022-11-12T09:24:29.996Z,8.54
2022-11-12T09:27:16.309Z,8.55
2022-11-12T09:30:03.108Z,8.56
2022-11-12T09:32:49.238Z,8.56
2022-11-12T09:35:35.616Z,8.56
2022-11-12T09:38:22.688Z,8.55
2022-11-12T09:41:15.928Z,8.54
2022-11-12T09:44:04.887Z,8.54
2022-11-12T09:47:00.309Z,8.55
2022-11-12T09:49:57.960Z,8.56
2022-11-12T09:52:47.453Z,8.57
2022-11-12T09:55:36.722Z,8.60
2022-11-12T09:58:25.165Z,8.60
2022-11-12T10:01:15.202Z,8.62
2022-11-12T10:04:22.863Z,8.64
2022-11-12T10:07:40.551Z,8.64
2022-11-12T10:10:48.285Z,8.61
2022-11-12T10:14:08.558Z,8.60
2022-11-12T10:17:08.987Z,8.60
2022-11-12T10:20:04.398Z,8.62
2022-11-12T10:22:53.526Z,8.64
2022-11-12T10:25:45.824Z,8.67
2022-11-12T10:28:40.535Z,8.69
2022-11-12T10:31:26.772Z,8.71
2022-11-12T10:34:16.031Z,8.72
2022-11-12T10:37:19.144Z,8.73
2022-11-12T10:40:21.205Z,8.72
2022-11-12T10:43:16.245Z,8.74
2022-11-12T10:46:23.718Z,8.75
2022-11-12T10:49:16.345Z,8.76
2022-11-12T10:52:02.475Z,8.80
2022-11-12T10:54:54.841Z,8.84
2022-11-12T10:57:41.368Z,8.84
2022-11-12T11:00:29.330Z,8.83
2022-11-12T11:03:19.888Z,8.83
2022-11-12T11:06:20.544Z,8.84
2022-11-12T11:09:12.713Z,8.86
2022-11-12T11:11:59.321Z,8.87
2022-11-12T11:14:45.614Z,8.89
2022-11-12T11:17:31.904Z,8.92
2022-11-12T11:20:24.992Z,8.95
2022-11-12T11:23:20.611Z,8.97
2022-11-12T11:26:49.762Z,8.99
2022-11-12T11:29:41.737Z,8.98
2022-11-12T11:32:48.298Z,8.96
2022-11-12T11:35:56.724Z,8.95
2022-11-12T11:39:02.395Z,8.95
2022-11-12T11:42:18.853Z,8.97
2022-11-12T11:45:17.175Z,8.98
2022-11-12T11:48:44.245Z,8.99
2022-11-12T11:51:49.391Z,8.99
2022-11-12T11:54:46.100Z,8.99
2022-11-12T11:57:56.661Z,9.03
2022-11-12T12:00:50.940Z,9.03
2022-11-12T12:03:50.329Z,9.02
2022-11-12T12:06:52.582Z,9.01
2022-11-12T12:09:51.476Z,9.01
2022-11-12T12:13:00.745Z,9.02
2022-11-12T12:16:10.517Z,9.02
2022-11-12T12:19:21.231Z,9.03
2022-11-12T12:22:15.233Z,9.04
2022-11-12T12:25:08.118Z,9.04
2022-11-12T12:28:02.759Z,9.04
2022-11-12T12:30:52.431Z,9.07
2022-11-12T12:33:56.695Z,9.09
2022-11-12T12:36:43.896Z,9.09
2022-11-12T12:39:43.616Z,9.10
2022-11-12T12:42:38.306Z,9.10
2022-11-12T12:45:39.309Z,9.11
2022-11-12T12:48:32.660Z,9.12
2022-11-12T12:51:19.271Z,9.15
2022-11-12T12:54:34.466Z,9.17
2022-11-12T12:57:35.365Z,9.15
2022-11-12T13:00:39.105Z,9.12
2022-11-12T13:03:44.163Z,9.11
2022-11-12T13:06:35.571Z,9.11
2022-11-12T13:09:24.861Z,9.11
2022-11-12T13:12:11.170Z,9.11
2022-11-12T13:15:12.762Z,9.12
2022-11-12T13:17:59.136Z,9.13
2022-11-12T13:21:10.534Z,9.14
2022-11-12T13:24:08.609Z,9.15
2022-11-12T13:26:59.679Z,9.14
2022-11-12T13:29:47.629Z,9.15
2022-11-12T13:32:46.571Z,9.17
2022-11-12T13:35:36.068Z,9.19
2022-11-12T13:38:22.567Z,9.21
2022-11-12T13:41:16.097Z,9.22
2022-11-12T13:44:06.928Z,9.23
2022-11-12T13:46:55.648Z,9.24
2022-11-12T13:49:44.142Z,9.25
2022-11-12T13:52:30.910Z,9.25
2022-11-12T13:55:22.100Z,9.24
2022-11-12T13:58:30.265Z,9.26
2022-11-12T14:01:20.157Z,9.24
2022-11-12T14:04:07.811Z,9.22
2022-11-12T14:06:59.620Z,9.22
2022-11-12T14:10:10.414Z,9.22
2022-11-12T14:13:10.744Z,9.20
2022-11-12T14:15:59.799Z,9.19
2022-11-12T14:19:07.864Z,9.18
2022-11-12T14:22:02.120Z,9.21
2022-11-12T14:24:54.362Z,9.23
2022-11-12T14:27:40.616Z,9.23
2022-11-12T14:30:32.142Z,9.24
2022-11-12T14:33:21.241Z,9.24
2022-11-12T14:36:13.484Z,9.22
2022-11-12T14:38:59.734Z,9.19
2022-11-12T14:41:47.684Z,9.19
2022-11-12T14:44:36.352Z,9.19
2022-11-12T14:47:24.117Z,9.18
2022-11-12T14:50:23.455Z,9.20
2022-11-12T14:53:16.538Z,9.21
2022-11-12T14:56:07.651Z,9.19
2022-11-12T14:58:54.933Z,9.19
2022-11-12T15:05:15.796Z,9.13
2022-11-12T15:08:10.960Z,9.13
2022-11-12T15:11:17.481Z,9.13
2022-11-12T15:14:19.832Z,9.14
2022-11-12T15:17:06.455Z,9.14
2022-11-12T15:19:52.952Z,9.12
2022-11-12T15:22:39.447Z,9.14
2022-11-12T15:25:30.831Z,9.17
2022-11-12T15:28:25.429Z,9.18
2022-11-12T15:31:21.850Z,9.18
2022-11-12T15:34:27.964Z,9.16
2022-11-12T15:37:20.052Z,9.15
2022-11-12T15:40:16.655Z,9.16
2022-11-12T15:43:03.325Z,9.18
2022-11-12T15:45:50.788Z,9.17
2022-11-12T15:48:38.126Z,9.14
2022-11-12T15:51:24.629Z,9.14
2022-11-12T15:54:11.088Z,9.14
2022-11-12T15:56:57.538Z,9.13
2022-11-12T15:59:45.046Z,9.12
2022-11-12T16:02:31.696Z,9.13
2022-11-12T16:05:18.894Z,9.13
2022-11-12T16:08:05.189Z,9.13
2022-11-12T16:10:51.490Z,9.13
2022-11-12T16:13:37.663Z,9.15
2022-11-12T16:16:24.333Z,9.17
2022-11-12T16:19:14.994Z,9.18
2022-11-12T16:22:01.908Z,9.19
2022-11-12T16:24:47.999Z,9.19
2022-11-12T16:27:34.677Z,9.18
2022-11-12T16:30:24.179Z,9.18
2022-11-12T16:33:11.926Z,9.19
2022-11-12T16:35:58.050Z,9.19
2022-11-12T16:38:45.731Z,9.20
2022-11-12T16:41:32.308Z,9.21
2022-11-12T16:44:18.540Z,9.21
2022-11-12T16:47:05.391Z,9.23
2022-11-12T16:49:51.963Z,9.24
2022-11-12T16:52:38.363Z,9.25
2022-11-12T16:55:24.929Z,9.26
2022-11-12T16:58:14.654Z,9.27
2022-11-12T17:01:01.030Z,9.28
2022-11-12T17:03:47.452Z,9.27
2022-11-12T17:06:40.487Z,9.27
2022-11-12T17:09:27.562Z,9.27
2022-11-12T17:12:14.296Z,9.27
2022-11-12T17:15:00.473Z,9.27
2022-11-12T17:17:47.071Z,9.26
2022-11-12T17:20:34.045Z,9.26
2022-11-12T17:23:20.533Z,9.25
2022-11-12T17:26:11.150Z,9.25
2022-11-12T17:29:03.471Z,9.25
2022-11-12T17:31:53.735Z,9.25
2022-11-12T17:34:40.218Z,9.26
2022-11-12T17:37:26.432Z,9.25
2022-11-12T17:40:12.902Z,9.26
2022-11-12T17:42:59.536Z,9.26
2022-11-12T17:45:52.788Z,9.27
2022-11-12T17:48:39.751Z,9.29
2022-11-12T17:51:27.636Z,9.30
2022-11-12T17:54:14.185Z,9.30
2022-11-12T17:57:00.643Z,9.31
2022-11-12T17:59:46.799Z,9.32
2022-11-12T18:02:33.403Z,9.32
2022-11-12T18:05:19.708Z,9.32
2022-11-12T18:08:05.870Z,9.33
2022-11-12T18:10:52.963Z,9.32
2022-11-12T18:13:39.384Z,9.29
2022-11-12T18:16:28.192Z,9.28
2022-11-12T18:19:15.741Z,9.27
2022-11-12T18:22:02.348Z,9.26
2022-11-12T18:24:48.600Z,9.25
2022-11-12T18:27:35.180Z,9.21
2022-11-12T18:30:21.692Z,9.17
2022-11-12T18:33:08.164Z,9.18
2022-11-12T18:36:06.502Z,9.17
2022-11-12T18:38:54.731Z,9.14
2022-11-12T18:41:40.924Z,9.14
2022-11-12T18:44:27.425Z,9.15
2022-11-12T18:47:13.692Z,9.17
2022-11-12T18:50:02.917Z,9.16
2022-11-12T18:52:53.590Z,9.14
2022-11-12T18:55:39.788Z,9.11
2022-11-12T18:58:31.968Z,9.09
2022-11-12T19:01:22.997Z,9.10
2022-11-12T19:04:10.975Z,9.10
2022-11-12T19:06:57.683Z,9.08
2022-11-12T19:09:44.430Z,9.06
2022-11-12T19:12:30.845Z,9.05
2022-11-12T19:15:17.415Z,9.07
2022-11-12T19:18:04.049Z,9.06
2022-11-12T19:20:50.130Z,9.07
2022-11-12T19:23:36.674Z,9.06
2022-11-12T19:26:23.777Z,9.06
2022-11-12T19:29:10.290Z,9.05
2022-11-12T19:31:56.997Z,9.04
2022-11-12T19:34:43.477Z,9.04
2022-11-12T19:37:34.083Z,9.03
2022-11-12T19:40:20.924Z,9.02
2022-11-12T19:43:07.717Z,9.01
2022-11-12T19:45:54.074Z,9.01
2022-11-12T19:48:40.339Z,9.01
2022-11-12T19:51:26.678Z,9.03
2022-11-12T19:54:13.282Z,9.03
2022-11-12T19:56:59.700Z,9.03
2022-11-12T19:59:46.220Z,9.06
2022-11-12T20:02:33.340Z,9.07
2022-11-12T20:05:19.568Z,9.07
2022-11-12T20:08:06.155Z,9.08
2022-11-12T20:10:52.345Z,9.08
2022-11-12T20:13:39.311Z,9.07
2022-11-12T20:16:26.075Z,9.07
2022-11-12T20:19:12.311Z,9.06
2022-11-12T20:21:58.752Z,9.05
2022-11-12T20:24:45.023Z,9.04
2022-11-12T20:27:31.574Z,9.03
2022-11-12T20:30:17.934Z,9.01
2022-11-12T20:33:04.713Z,9.01
2022-11-12T20:35:54.685Z,9.00
2022-11-12T20:38:42.533Z,9.00
2022-11-12T20:41:29.492Z,8.99
2022-11-12T20:44:16.493Z,8.98
2022-11-12T20:47:02.980Z,8.97
2022-11-12T20:49:49.637Z,8.97
2022-11-12T20:52:36.160Z,8.96
2022-11-12T20:55:22.553Z,8.97
2022-11-12T20:58:08.990Z,8.97
2022-11-12T21:00:55.404Z,8.97
2022-11-12T21:03:43.138Z,8.96
2022-11-12T21:06:29.941Z,8.96
2022-11-12T21:09:16.843Z,8.95
2022-11-12T21:12:03.922Z,8.95
2022-11-12T21:14:51.164Z,8.96
2022-11-12T21:17:37.731Z,8.97
2022-11-12T21:20:24.448Z,8.97
2022-11-12T21:23:10.684Z,8.96
2022-11-12T21:26:15.015Z,8.93
2022-11-12T21:29:01.706Z,8.91
2022-11-12T21:31:47.939Z,8.89
2022-11-12T21:34:34.355Z,8.89
2022-11-12T21:37:22.218Z,8.88
2022-11-12T21:40:09.191Z,8.88
2022-11-12T21:42:55.648Z,8.89
2022-11-12T21:45:46.701Z,8.89
2022-11-12T21:48:33.345Z,8.89
2022-11-12T21:51:22.186Z,8.89
2022-11-12T21:54:08.764Z,8.90
2022-11-12T21:56:54.942Z,8.92
2022-11-12T21:59:42.903Z,8.95
2022-11-12T22:02:29.252Z,8.97
2022-11-12T22:05:15.827Z,8.98
2022-11-12T22:08:02.193Z,8.99
2022-11-12T22:10:48.597Z,9.00
2022-11-12T22:13:35.323Z,9.01
2022-11-12T22:16:23.430Z,9.02
2022-11-12T22:19:11.204Z,9.00
2022-11-12T22:21:57.496Z,8.97
2022-11-12T22:24:43.880Z,8.95
2022-11-12T22:27:31.509Z,8.96
2022-11-12T22:30:18.149Z,8.95
2022-11-12T22:33:04.700Z,8.97
2022-11-12T22:35:51.008Z,8.98
2022-11-12T22:38:40.100Z,8.98
2022-11-12T22:41:29.313Z,9.01
2022-11-12T22:44:15.498Z,9.01
2022-11-12T22:47:01.986Z,9.01
2022-11-12T22:49:48.599Z,8.98
2022-11-12T22:52:35.073Z,8.96
2022-11-12T22:55:21.510Z,8.97
2022-11-12T22:58:08.997Z,8.97
2022-11-12T23:00:55.438Z,8.96
2022-11-12T23:03:41.891Z,8.96
2022-11-12T23:06:29.513Z,8.97
2022-11-12T23:09:17.230Z,8.98
2022-11-12T23:12:04.262Z,8.96
2022-11-12T23:14:50.587Z,8.93
2022-11-12T23:17:36.921Z,8.92
2022-11-12T23:20:23.755Z,8.93
2022-11-12T23:23:10.072Z,8.94
2022-11-12T23:26:04.916Z,8.92
2022-11-12T23:28:51.899Z,8.86
2022-11-12T23:31:38.600Z,8.85
2022-11-12T23:34:24.777Z,8.85
2022-11-12T23:37:11.285Z,8.84
2022-11-12T23:39:57.761Z,8.81
2022-11-12T23:42:44.228Z,8.80
2022-11-12T23:45:30.555Z,8.80
2022-11-12T23:48:18.003Z,8.81
2022-11-12T23:51:07.455Z,8.82
2022-11-12T23:53:53.650Z,8.85
2022-11-12T23:56:40.130Z,8.87
2022-11-12T23:59:26.707Z,8.87
